High temp

Not for real navigation. The accuracy of this data is not assured See disclaimer for more information



ICAO NAME COUNTRY WIND Kt GUST Kt VIS m TEMP/DEW C BARO METAR
YPBO 9 0 9999 44/-2 29.71 YPBO 170900Z AUTO 25009KT 160V280 9999 // NCD 44/M02 Q1006
YNWN 4 0 9999 43/-2 29.74 YNWN 170900Z AUTO 31004KT 270V050 9999 // NCD 43/M02 Q1007
YTEF 7 0 9999 42/8 29.68 YTEF 170900Z AUTO 28007KT 9999 // NCD 42/08 Q1005
YMEK 9 0 9999 40/-2 29.77 YMEK 170900Z AUTO 23009KT 9999 // NCD 40/M02 Q1008
YBDV 4 0 9999 40/1 29.65 YBDV 170900Z AUTO 24004KT //// // ////// 40/01 Q1004

Show more